﻿<?xml version="1.0" encoding="UTF-8" standalone="no"?>
<gpx xmlns="http://www.topografix.com/GPX/1/1" xmlns:gpxtpx="http://www.garmin.com/xmlschemas/TrackPointExtension/v1" xmlns:xsi="http://www.w3.org/2001/XMLSchema-instance" creator="Hribi.net" version="1.1" xsi:schemaLocation="http://www.topografix.com/GPX/1/1 http://www.topografix.com/GPX/1/1/gpx.xsd http://www.garmin.com/xmlschemas/TrackPointExtension/v1 http://www.garmin.com/xmlschemas/TrackPointExtensionv1.xsd">
  <metadata>
    <name>GPS sled</name>
    <desc>www.hribi.net</desc>
    <author>
      <name>hribi.net</name>
    </author>
    <link href="http://www.hribi.net">
      <text>Hribi.net</text>
    </link>
  </metadata>
  <trk>
    <trkseg>
      <trkpt lat="45.849260" lon="13.703435">
        <ele>382.524</ele>
        <time>2013-05-26T11:18:32Z</time>
      </trkpt>
      <trkpt lat="45.849332" lon="13.703672">
        <ele>381.42672</ele>
        <time>2013-05-26T11:18:50Z</time>
      </trkpt>
      <trkpt lat="45.849474" lon="13.703837">
        <ele>381.12192</ele>
        <time>2013-05-26T11:19:12Z</time>
      </trkpt>
      <trkpt lat="45.849644" lon="13.703740">
        <ele>381.36576</ele>
        <time>2013-05-26T11:19:40Z</time>
      </trkpt>
      <trkpt lat="45.849788" lon="13.703926">
        <ele>383.7432</ele>
        <time>2013-05-26T11:20:20Z</time>
      </trkpt>
      <trkpt lat="45.849969" lon="13.703944">
        <ele>385.08432</ele>
        <time>2013-05-26T11:20:37Z</time>
      </trkpt>
      <trkpt lat="45.850111" lon="13.703768">
        <ele>389.74776</ele>
        <time>2013-05-26T11:21:11Z</time>
      </trkpt>
      <trkpt lat="45.850240" lon="13.703577">
        <ele>391.54608</ele>
        <time>2013-05-26T11:22:08Z</time>
      </trkpt>
      <trkpt lat="45.850262" lon="13.703317">
        <ele>392.43</ele>
        <time>2013-05-26T11:22:29Z</time>
      </trkpt>
      <trkpt lat="45.850364" lon="13.703099">
        <ele>396.27048</ele>
        <time>2013-05-26T11:23:06Z</time>
      </trkpt>
      <trkpt lat="45.850523" lon="13.702977">
        <ele>397.82496</ele>
        <time>2013-05-26T11:23:24Z</time>
      </trkpt>
      <trkpt lat="45.850658" lon="13.702793">
        <ele>403.21992</ele>
        <time>2013-05-26T11:24:08Z</time>
      </trkpt>
      <trkpt lat="45.850764" lon="13.702569">
        <ele>410.59608</ele>
        <time>2013-05-26T11:24:44Z</time>
      </trkpt>
      <trkpt lat="45.850946" lon="13.702590">
        <ele>411.84576</ele>
        <time>2013-05-26T11:25:11Z</time>
      </trkpt>
      <trkpt lat="45.851130" lon="13.702618">
        <ele>415.62528</ele>
        <time>2013-05-26T11:25:30Z</time>
      </trkpt>
      <trkpt lat="45.851288" lon="13.702494">
        <ele>419.37432</ele>
        <time>2013-05-26T11:26:00Z</time>
      </trkpt>
      <trkpt lat="45.851447" lon="13.702354">
        <ele>428.18304</ele>
        <time>2013-05-26T11:26:39Z</time>
      </trkpt>
      <trkpt lat="45.851635" lon="13.702354">
        <ele>431.93208</ele>
        <time>2013-05-26T11:27:09Z</time>
      </trkpt>
      <trkpt lat="45.851785" lon="13.702512">
        <ele>434.15712</ele>
        <time>2013-05-26T11:27:34Z</time>
      </trkpt>
      <trkpt lat="45.851949" lon="13.702389">
        <ele>442.50864</ele>
        <time>2013-05-26T11:29:21Z</time>
      </trkpt>
      <trkpt lat="45.852120" lon="13.702306">
        <ele>449.00088</ele>
        <time>2013-05-26T11:29:48Z</time>
      </trkpt>
      <trkpt lat="45.852298" lon="13.702267">
        <ele>458.14488</ele>
        <time>2013-05-26T11:30:18Z</time>
      </trkpt>
      <trkpt lat="45.852444" lon="13.702114">
        <ele>466.46592</ele>
        <time>2013-05-26T11:32:11Z</time>
      </trkpt>
      <trkpt lat="45.852606" lon="13.701970">
        <ele>472.19616</ele>
        <time>2013-05-26T11:32:45Z</time>
      </trkpt>
      <trkpt lat="45.852787" lon="13.701901">
        <ele>477.774</ele>
        <time>2013-05-26T11:33:25Z</time>
      </trkpt>
      <trkpt lat="45.852953" lon="13.702009">
        <ele>483.90048</ele>
        <time>2013-05-26T11:34:19Z</time>
      </trkpt>
      <trkpt lat="45.853136" lon="13.701984">
        <ele>486.24744</ele>
        <time>2013-05-26T11:35:04Z</time>
      </trkpt>
      <trkpt lat="45.853319" lon="13.701953">
        <ele>489.38688</ele>
        <time>2013-05-26T11:35:24Z</time>
      </trkpt>
      <trkpt lat="45.853505" lon="13.701947">
        <ele>496.062</ele>
        <time>2013-05-26T11:36:14Z</time>
      </trkpt>
      <trkpt lat="45.853674" lon="13.702067">
        <ele>501.60936</ele>
        <time>2013-05-26T11:36:30Z</time>
      </trkpt>
      <trkpt lat="45.853855" lon="13.702070">
        <ele>506.54712</ele>
        <time>2013-05-26T11:36:50Z</time>
      </trkpt>
      <trkpt lat="45.854041" lon="13.702113">
        <ele>512.49072</ele>
        <time>2013-05-26T11:37:04Z</time>
      </trkpt>
      <trkpt lat="45.854233" lon="13.702180">
        <ele>520.17168</ele>
        <time>2013-05-26T11:37:51Z</time>
      </trkpt>
      <trkpt lat="45.854406" lon="13.702273">
        <ele>523.98168</ele>
        <time>2013-05-26T11:38:18Z</time>
      </trkpt>
      <trkpt lat="45.854571" lon="13.702478">
        <ele>528.73656</ele>
        <time>2013-05-26T11:38:45Z</time>
      </trkpt>
      <trkpt lat="45.854746" lon="13.702586">
        <ele>528.15744</ele>
        <time>2013-05-26T11:38:55Z</time>
      </trkpt>
      <trkpt lat="45.854888" lon="13.702761">
        <ele>531.66264</ele>
        <time>2013-05-26T11:39:23Z</time>
      </trkpt>
      <trkpt lat="45.855005" lon="13.702957">
        <ele>536.17368</ele>
        <time>2013-05-26T11:39:41Z</time>
      </trkpt>
      <trkpt lat="45.855138" lon="13.703140">
        <ele>539.73984</ele>
        <time>2013-05-26T11:40:02Z</time>
      </trkpt>
      <trkpt lat="45.855301" lon="13.703287">
        <ele>544.00704</ele>
        <time>2013-05-26T11:40:24Z</time>
      </trkpt>
      <trkpt lat="45.855385" lon="13.703518">
        <ele>547.78656</ele>
        <time>2013-05-26T11:40:39Z</time>
      </trkpt>
      <trkpt lat="45.855471" lon="13.703757">
        <ele>549.43248</ele>
        <time>2013-05-26T11:41:08Z</time>
      </trkpt>
      <trkpt lat="45.855551" lon="13.703991">
        <ele>550.89552</ele>
        <time>2013-05-26T11:41:34Z</time>
      </trkpt>
      <trkpt lat="45.855586" lon="13.704244">
        <ele>552.7548</ele>
        <time>2013-05-26T11:41:56Z</time>
      </trkpt>
      <trkpt lat="45.855666" lon="13.704493">
        <ele>555.43704</ele>
        <time>2013-05-26T11:42:13Z</time>
      </trkpt>
      <trkpt lat="45.855656" lon="13.704751">
        <ele>555.8028</ele>
        <time>2013-05-26T11:42:58Z</time>
      </trkpt>
      <trkpt lat="45.855725" lon="13.704989">
        <ele>560.03952</ele>
        <time>2013-05-26T11:43:34Z</time>
      </trkpt>
      <trkpt lat="45.855780" lon="13.705235">
        <ele>562.08168</ele>
        <time>2013-05-26T11:43:56Z</time>
      </trkpt>
      <trkpt lat="45.855843" lon="13.705479">
        <ele>562.44744</ele>
        <time>2013-05-26T11:44:12Z</time>
      </trkpt>
      <trkpt lat="45.855881" lon="13.705734">
        <ele>564.85536</ele>
        <time>2013-05-26T11:44:29Z</time>
      </trkpt>
      <trkpt lat="45.855844" lon="13.705993">
        <ele>566.59272</ele>
        <time>2013-05-26T11:44:48Z</time>
      </trkpt>
      <trkpt lat="45.856002" lon="13.706130">
        <ele>576.5292</ele>
        <time>2013-05-26T11:45:53Z</time>
      </trkpt>
      <trkpt lat="45.856165" lon="13.706011">
        <ele>578.72376</ele>
        <time>2013-05-26T11:46:20Z</time>
      </trkpt>
      <trkpt lat="45.856298" lon="13.705828">
        <ele>578.84568</ele>
        <time>2013-05-26T11:46:39Z</time>
      </trkpt>
      <trkpt lat="45.856451" lon="13.705687">
        <ele>581.7108</ele>
        <time>2013-05-26T11:46:58Z</time>
      </trkpt>
      <trkpt lat="45.856573" lon="13.705486">
        <ele>583.50912</ele>
        <time>2013-05-26T11:47:26Z</time>
      </trkpt>
      <trkpt lat="45.856759" lon="13.705434">
        <ele>588.7212</ele>
        <time>2013-05-26T11:48:36Z</time>
      </trkpt>
      <trkpt lat="45.856920" lon="13.705582">
        <ele>590.79384</ele>
        <time>2013-05-26T11:48:50Z</time>
      </trkpt>
      <trkpt lat="45.857081" lon="13.705719">
        <ele>594.69528</ele>
        <time>2013-05-26T11:49:02Z</time>
      </trkpt>
      <trkpt lat="45.857219" lon="13.705894">
        <ele>598.68816</ele>
        <time>2013-05-26T11:49:44Z</time>
      </trkpt>
      <trkpt lat="45.857285" lon="13.706152">
        <ele>602.25432</ele>
        <time>2013-05-26T11:50:29Z</time>
      </trkpt>
    </trkseg>
    <trkseg>
      <trkpt lat="45.857308" lon="13.705922">
        <ele>606.94824</ele>
        <time>2013-05-26T12:24:04Z</time>
      </trkpt>
      <trkpt lat="45.857120" lon="13.705859">
        <ele>613.04424</ele>
        <time>2013-05-26T12:24:19Z</time>
      </trkpt>
      <trkpt lat="45.856957" lon="13.705724">
        <ele>609.11232</ele>
        <time>2013-05-26T12:24:58Z</time>
      </trkpt>
      <trkpt lat="45.856784" lon="13.705608">
        <ele>607.40544</ele>
        <time>2013-05-26T12:25:20Z</time>
      </trkpt>
      <trkpt lat="45.856620" lon="13.705718">
        <ele>605.51568</ele>
        <time>2013-05-26T12:25:52Z</time>
      </trkpt>
      <trkpt lat="45.856508" lon="13.705930">
        <ele>602.07144</ele>
        <time>2013-05-26T12:26:20Z</time>
      </trkpt>
      <trkpt lat="45.856345" lon="13.706070">
        <ele>599.51112</ele>
        <time>2013-05-26T12:26:37Z</time>
      </trkpt>
      <trkpt lat="45.856169" lon="13.706170">
        <ele>597.5604</ele>
        <time>2013-05-26T12:26:49Z</time>
      </trkpt>
      <trkpt lat="45.856001" lon="13.706272">
        <ele>594.39048</ele>
        <time>2013-05-26T12:27:01Z</time>
      </trkpt>
      <trkpt lat="45.855832" lon="13.706372">
        <ele>590.97672</ele>
        <time>2013-05-26T12:27:18Z</time>
      </trkpt>
      <trkpt lat="45.855707" lon="13.706174">
        <ele>590.0928</ele>
        <time>2013-05-26T12:27:37Z</time>
      </trkpt>
      <trkpt lat="45.855675" lon="13.705917">
        <ele>588.38592</ele>
        <time>2013-05-26T12:27:59Z</time>
      </trkpt>
      <trkpt lat="45.855613" lon="13.705657">
        <ele>587.502</ele>
        <time>2013-05-26T12:28:19Z</time>
      </trkpt>
      <trkpt lat="45.855556" lon="13.705401">
        <ele>586.49616</ele>
        <time>2013-05-26T12:28:38Z</time>
      </trkpt>
      <trkpt lat="45.855537" lon="13.705140">
        <ele>584.69784</ele>
        <time>2013-05-26T12:28:57Z</time>
      </trkpt>
      <trkpt lat="45.855502" lon="13.704877">
        <ele>582.6252</ele>
        <time>2013-05-26T12:29:16Z</time>
      </trkpt>
      <trkpt lat="45.855515" lon="13.704616">
        <ele>572.93256</ele>
        <time>2013-05-26T12:30:21Z</time>
      </trkpt>
      <trkpt lat="45.855446" lon="13.704365">
        <ele>571.68288</ele>
        <time>2013-05-26T12:30:36Z</time>
      </trkpt>
      <trkpt lat="45.855356" lon="13.704135">
        <ele>573.26784</ele>
        <time>2013-05-26T12:30:50Z</time>
      </trkpt>
      <trkpt lat="45.855286" lon="13.703885">
        <ele>573.42024</ele>
        <time>2013-05-26T12:31:09Z</time>
      </trkpt>
      <trkpt lat="45.855193" lon="13.703640">
        <ele>571.56096</ele>
        <time>2013-05-26T12:31:30Z</time>
      </trkpt>
      <trkpt lat="45.855127" lon="13.703386">
        <ele>568.33008</ele>
        <time>2013-05-26T12:31:43Z</time>
      </trkpt>
      <trkpt lat="45.855066" lon="13.703138">
        <ele>564.97728</ele>
        <time>2013-05-26T12:31:58Z</time>
      </trkpt>
      <trkpt lat="45.855073" lon="13.702871">
        <ele>561.47208</ele>
        <time>2013-05-26T12:32:10Z</time>
      </trkpt>
      <trkpt lat="45.855070" lon="13.702602">
        <ele>561.99024</ele>
        <time>2013-05-26T12:32:25Z</time>
      </trkpt>
      <trkpt lat="45.855172" lon="13.702382">
        <ele>561.594</ele>
        <time>2013-05-26T12:32:42Z</time>
      </trkpt>
      <trkpt lat="45.855191" lon="13.702121">
        <ele>561.68544</ele>
        <time>2013-05-26T12:32:56Z</time>
      </trkpt>
      <trkpt lat="45.855167" lon="13.701864">
        <ele>559.85664</ele>
        <time>2013-05-26T12:33:09Z</time>
      </trkpt>
      <trkpt lat="45.855188" lon="13.701597">
        <ele>559.52136</ele>
        <time>2013-05-26T12:33:27Z</time>
      </trkpt>
      <trkpt lat="45.855138" lon="13.701345">
        <ele>559.67376</ele>
        <time>2013-05-26T12:33:43Z</time>
      </trkpt>
      <trkpt lat="45.855109" lon="13.701076">
        <ele>560.49672</ele>
        <time>2013-05-26T12:33:58Z</time>
      </trkpt>
      <trkpt lat="45.855129" lon="13.700817">
        <ele>556.19904</ele>
        <time>2013-05-26T12:34:17Z</time>
      </trkpt>
      <trkpt lat="45.855246" lon="13.700611">
        <ele>555.31512</ele>
        <time>2013-05-26T12:34:35Z</time>
      </trkpt>
      <trkpt lat="45.855388" lon="13.700433">
        <ele>553.30344</ele>
        <time>2013-05-26T12:34:48Z</time>
      </trkpt>
      <trkpt lat="45.855489" lon="13.700207">
        <ele>558.66792</ele>
        <time>2013-05-26T12:35:23Z</time>
      </trkpt>
      <trkpt lat="45.855579" lon="13.699969">
        <ele>554.97984</ele>
        <time>2013-05-26T12:35:50Z</time>
      </trkpt>
      <trkpt lat="45.855596" lon="13.699707">
        <ele>552.23664</ele>
        <time>2013-05-26T12:36:09Z</time>
      </trkpt>
      <trkpt lat="45.855635" lon="13.699439">
        <ele>550.65168</ele>
        <time>2013-05-26T12:36:24Z</time>
      </trkpt>
      <trkpt lat="45.855695" lon="13.699190">
        <ele>547.45128</ele>
        <time>2013-05-26T12:36:39Z</time>
      </trkpt>
      <trkpt lat="45.855775" lon="13.698941">
        <ele>544.18992</ele>
        <time>2013-05-26T12:36:56Z</time>
      </trkpt>
      <trkpt lat="45.855782" lon="13.698671">
        <ele>543.70224</ele>
        <time>2013-05-26T12:37:14Z</time>
      </trkpt>
      <trkpt lat="45.855828" lon="13.698409">
        <ele>542.30016</ele>
        <time>2013-05-26T12:37:34Z</time>
      </trkpt>
      <trkpt lat="45.855955" lon="13.698222">
        <ele>541.782</ele>
        <time>2013-05-26T12:37:48Z</time>
      </trkpt>
      <trkpt lat="45.856051" lon="13.698002">
        <ele>540.34944</ele>
        <time>2013-05-26T12:38:16Z</time>
      </trkpt>
      <trkpt lat="45.856062" lon="13.697734">
        <ele>535.74696</ele>
        <time>2013-05-26T12:38:31Z</time>
      </trkpt>
      <trkpt lat="45.856037" lon="13.697469">
        <ele>533.21712</ele>
        <time>2013-05-26T12:38:50Z</time>
      </trkpt>
      <trkpt lat="45.855977" lon="13.697213">
        <ele>532.30272</ele>
        <time>2013-05-26T12:39:03Z</time>
      </trkpt>
      <trkpt lat="45.855966" lon="13.696953">
        <ele>533.21712</ele>
        <time>2013-05-26T12:39:38Z</time>
      </trkpt>
      <trkpt lat="45.855910" lon="13.696694">
        <ele>532.36368</ele>
        <time>2013-05-26T12:39:59Z</time>
      </trkpt>
      <trkpt lat="45.855830" lon="13.696454">
        <ele>531.29688</ele>
        <time>2013-05-26T12:40:12Z</time>
      </trkpt>
      <trkpt lat="45.855736" lon="13.696228">
        <ele>528.27936</ele>
        <time>2013-05-26T12:40:27Z</time>
      </trkpt>
      <trkpt lat="45.855594" lon="13.696050">
        <ele>526.0848</ele>
        <time>2013-05-26T12:40:43Z</time>
      </trkpt>
      <trkpt lat="45.855407" lon="13.696090">
        <ele>523.25016</ele>
        <time>2013-05-26T12:41:06Z</time>
      </trkpt>
      <trkpt lat="45.855227" lon="13.696155">
        <ele>519.8364</ele>
        <time>2013-05-26T12:42:04Z</time>
      </trkpt>
      <trkpt lat="45.855049" lon="13.696222">
        <ele>518.67816</ele>
        <time>2013-05-26T12:42:24Z</time>
      </trkpt>
      <trkpt lat="45.854862" lon="13.696208">
        <ele>517.58088</ele>
        <time>2013-05-26T12:42:43Z</time>
      </trkpt>
      <trkpt lat="45.854682" lon="13.696236">
        <ele>512.39928</ele>
        <time>2013-05-26T12:43:09Z</time>
      </trkpt>
      <trkpt lat="45.854510" lon="13.696318">
        <ele>509.10744</ele>
        <time>2013-05-26T12:43:26Z</time>
      </trkpt>
      <trkpt lat="45.854324" lon="13.696328">
        <ele>505.54128</ele>
        <time>2013-05-26T12:43:48Z</time>
      </trkpt>
      <trkpt lat="45.854137" lon="13.696336">
        <ele>502.79808</ele>
        <time>2013-05-26T12:44:06Z</time>
      </trkpt>
      <trkpt lat="45.853950" lon="13.696293">
        <ele>498.46992</ele>
        <time>2013-05-26T12:44:24Z</time>
      </trkpt>
      <trkpt lat="45.853770" lon="13.696308">
        <ele>496.58016</ele>
        <time>2013-05-26T12:44:43Z</time>
      </trkpt>
      <trkpt lat="45.853583" lon="13.696300">
        <ele>490.81944</ele>
        <time>2013-05-26T12:45:01Z</time>
      </trkpt>
      <trkpt lat="45.853483" lon="13.696524">
        <ele>481.40112</ele>
        <time>2013-05-26T12:45:44Z</time>
      </trkpt>
      <trkpt lat="45.853531" lon="13.696778">
        <ele>479.9076</ele>
        <time>2013-05-26T12:46:00Z</time>
      </trkpt>
      <trkpt lat="45.853617" lon="13.697022">
        <ele>478.62744</ele>
        <time>2013-05-26T12:46:19Z</time>
      </trkpt>
      <trkpt lat="45.853669" lon="13.697281">
        <ele>476.4024</ele>
        <time>2013-05-26T12:46:34Z</time>
      </trkpt>
      <trkpt lat="45.853544" lon="13.697489">
        <ele>474.63456</ele>
        <time>2013-05-26T12:46:50Z</time>
      </trkpt>
      <trkpt lat="45.853396" lon="13.697644">
        <ele>472.8972</ele>
        <time>2013-05-26T12:47:05Z</time>
      </trkpt>
      <trkpt lat="45.853227" lon="13.697763">
        <ele>467.65464</ele>
        <time>2013-05-26T12:47:25Z</time>
      </trkpt>
      <trkpt lat="45.853088" lon="13.697947">
        <ele>462.50352</ele>
        <time>2013-05-26T12:48:23Z</time>
      </trkpt>
      <trkpt lat="45.852929" lon="13.698105">
        <ele>461.89392</ele>
        <time>2013-05-26T12:48:37Z</time>
      </trkpt>
      <trkpt lat="45.852765" lon="13.698228">
        <ele>459.91272</ele>
        <time>2013-05-26T12:48:53Z</time>
      </trkpt>
      <trkpt lat="45.852615" lon="13.698401">
        <ele>458.81544</ele>
        <time>2013-05-26T12:49:09Z</time>
      </trkpt>
      <trkpt lat="45.852484" lon="13.698596">
        <ele>456.5904</ele>
        <time>2013-05-26T12:49:27Z</time>
      </trkpt>
      <trkpt lat="45.852365" lon="13.698808">
        <ele>456.65136</ele>
        <time>2013-05-26T12:49:46Z</time>
      </trkpt>
      <trkpt lat="45.852190" lon="13.698897">
        <ele>454.51776</ele>
        <time>2013-05-26T12:50:06Z</time>
      </trkpt>
      <trkpt lat="45.852047" lon="13.699060">
        <ele>453.0852</ele>
        <time>2013-05-26T12:50:18Z</time>
      </trkpt>
      <trkpt lat="45.851945" lon="13.699283">
        <ele>450.9516</ele>
        <time>2013-05-26T12:50:33Z</time>
      </trkpt>
      <trkpt lat="45.851853" lon="13.699507">
        <ele>449.48856</ele>
        <time>2013-05-26T12:50:55Z</time>
      </trkpt>
      <trkpt lat="45.851760" lon="13.699742">
        <ele>448.29984</ele>
        <time>2013-05-26T12:51:11Z</time>
      </trkpt>
      <trkpt lat="45.851629" lon="13.699919">
        <ele>446.28816</ele>
        <time>2013-05-26T12:51:28Z</time>
      </trkpt>
      <trkpt lat="45.851511" lon="13.700130">
        <ele>444.48984</ele>
        <time>2013-05-26T12:51:46Z</time>
      </trkpt>
      <trkpt lat="45.851424" lon="13.700371">
        <ele>442.99632</ele>
        <time>2013-05-26T12:52:10Z</time>
      </trkpt>
      <trkpt lat="45.851365" lon="13.700621">
        <ele>441.5028</ele>
        <time>2013-05-26T12:52:28Z</time>
      </trkpt>
      <trkpt lat="45.851264" lon="13.700850">
        <ele>437.66232</ele>
        <time>2013-05-26T12:52:41Z</time>
      </trkpt>
      <trkpt lat="45.851190" lon="13.701102">
        <ele>435.19344</ele>
        <time>2013-05-26T12:52:59Z</time>
      </trkpt>
      <trkpt lat="45.851139" lon="13.701358">
        <ele>432.23688</ele>
        <time>2013-05-26T12:53:16Z</time>
      </trkpt>
      <trkpt lat="45.851086" lon="13.701613">
        <ele>428.30496</ele>
        <time>2013-05-26T12:53:38Z</time>
      </trkpt>
      <trkpt lat="45.851044" lon="13.701869">
        <ele>427.08576</ele>
        <time>2013-05-26T12:54:04Z</time>
      </trkpt>
      <trkpt lat="45.851002" lon="13.702122">
        <ele>425.74464</ele>
        <time>2013-05-26T12:54:20Z</time>
      </trkpt>
      <trkpt lat="45.850964" lon="13.702383">
        <ele>423.33672</ele>
        <time>2013-05-26T12:54:39Z</time>
      </trkpt>
      <trkpt lat="45.850921" lon="13.702646">
        <ele>422.72712</ele>
        <time>2013-05-26T12:54:55Z</time>
      </trkpt>
      <trkpt lat="45.850801" lon="13.702844">
        <ele>421.66032</ele>
        <time>2013-05-26T12:55:27Z</time>
      </trkpt>
      <trkpt lat="45.850659" lon="13.703023">
        <ele>421.26408</ele>
        <time>2013-05-26T12:55:57Z</time>
      </trkpt>
      <trkpt lat="45.850479" lon="13.703107">
        <ele>416.87496</ele>
        <time>2013-05-26T12:56:28Z</time>
      </trkpt>
      <trkpt lat="45.850336" lon="13.703266">
        <ele>415.10712</ele>
        <time>2013-05-26T12:56:51Z</time>
      </trkpt>
      <trkpt lat="45.850303" lon="13.703524">
        <ele>412.42488</ele>
        <time>2013-05-26T12:57:14Z</time>
      </trkpt>
      <trkpt lat="45.850192" lon="13.703743">
        <ele>409.55976</ele>
        <time>2013-05-26T12:57:29Z</time>
      </trkpt>
      <trkpt lat="45.850076" lon="13.703940">
        <ele>405.29256</ele>
        <time>2013-05-26T12:57:45Z</time>
      </trkpt>
      <trkpt lat="45.849907" lon="13.704040">
        <ele>402.85416</ele>
        <time>2013-05-26T12:58:07Z</time>
      </trkpt>
      <trkpt lat="45.849717" lon="13.704051">
        <ele>400.17192</ele>
        <time>2013-05-26T12:58:24Z</time>
      </trkpt>
      <trkpt lat="45.849604" lon="13.703841">
        <ele>395.1732</ele>
        <time>2013-05-26T12:58:39Z</time>
      </trkpt>
      <trkpt lat="45.849489" lon="13.703634">
        <ele>389.65632</ele>
        <time>2013-05-26T12:59:02Z</time>
      </trkpt>
      <trkpt lat="45.849309" lon="13.703604">
        <ele>386.30352</ele>
        <time>2013-05-26T12:59:18Z</time>
      </trkpt>
      <trkpt lat="45.849128" lon="13.703517">
        <ele>385.69392</ele>
        <time>2013-05-26T12:59:33Z</time>
      </trkpt>
    </trkseg>
  </trk>
</gpx>
